createdAt,value
2022-11-29T00:01:27.092Z,23.92
2022-11-29T00:03:57.028Z,23.35
2022-11-29T00:06:30.146Z,22.20
2022-11-29T00:09:03.469Z,22.95
2022-11-29T00:11:51.793Z,24.25
2022-11-29T00:14:22.660Z,22.05
2022-11-29T00:16:54.943Z,22.10
2022-11-29T00:19:22.782Z,19.73
2022-11-29T00:21:50.138Z,20.70
2022-11-29T00:24:17.578Z,20.95
2022-11-29T00:26:44.764Z,26.13
2022-11-29T00:29:13.116Z,32.55
2022-11-29T00:31:41.189Z,33.83
2022-11-29T00:34:10.182Z,39.67
2022-11-29T00:36:37.601Z,22.63
2022-11-29T00:39:05.783Z,28.02
2022-11-29T00:41:33.248Z,35.47
2022-11-29T00:44:00.486Z,30.92
2022-11-29T00:46:27.832Z,29.02
2022-11-29T00:48:54.932Z,28.77
2022-11-29T00:51:24.082Z,27.92
2022-11-29T00:53:52.668Z,30.88
2022-11-29T00:56:21.560Z,28.75
2022-11-29T00:58:49.439Z,31.17
2022-11-29T01:01:16.981Z,23.67
2022-11-29T01:03:55.932Z,24.83
2022-11-29T01:06:22.975Z,22.30
2022-11-29T01:08:50.763Z,21.85
2022-11-29T01:11:26.422Z,19.60
2022-11-29T01:13:57.543Z,19.88
2022-11-29T01:16:25.545Z,17.48
2022-11-29T01:18:55.295Z,22.38
2022-11-29T01:21:26.229Z,21.88
2022-11-29T01:23:54.207Z,24.17
2022-11-29T01:26:24.267Z,21.77
2022-11-29T01:28:56.357Z,22.67
2022-11-29T01:31:31.816Z,18.23
2022-11-29T01:34:03.312Z,16.92
2022-11-29T01:36:30.782Z,20.80
2022-11-29T01:38:59.970Z,18.00
2022-11-29T01:41:29.321Z,14.30
2022-11-29T01:44:08.089Z,21.95
2022-11-29T01:46:38.789Z,22.90
2022-11-29T01:49:17.559Z,21.13
2022-11-29T01:52:01.394Z,28.83
2022-11-29T01:54:30.179Z,20.70
2022-11-29T01:56:59.007Z,20.00
2022-11-29T01:59:32.164Z,20.10
2022-11-29T02:02:06.910Z,19.88
2022-11-29T02:04:35.727Z,19.08
2022-11-29T02:07:02.941Z,19.77
2022-11-29T02:09:30.329Z,17.95
2022-11-29T02:12:17.715Z,20.30
2022-11-29T02:15:16.261Z,17.27
2022-11-29T02:17:49.013Z,26.15
2022-11-29T02:23:24.821Z,20.60
2022-11-29T02:25:54.823Z,19.50
2022-11-29T02:28:49.913Z,19.25
2022-11-29T02:31:51.674Z,18.98
2022-11-29T02:34:55.789Z,17.17
2022-11-29T02:37:41.135Z,18.25
2022-11-29T02:40:37.423Z,18.10
2022-11-29T02:43:29.323Z,21.40
2022-11-29T02:46:21.610Z,16.80
2022-11-29T02:49:00.911Z,16.60
2022-11-29T02:51:34.970Z,18.67
2022-11-29T02:54:07.669Z,15.48
2022-11-29T02:57:09.888Z,17.48
2022-11-29T02:59:51.794Z,18.15
2022-11-29T03:02:52.782Z,14.83
2022-11-29T03:05:55.252Z,14.38
2022-11-29T03:08:46.382Z,13.77
2022-11-29T03:11:33.110Z,20.92
2022-11-29T03:14:29.222Z,25.67
2022-11-29T03:17:31.028Z,22.48
2022-11-29T03:20:07.760Z,36.03
2022-11-29T03:23:07.769Z,27.88
2022-11-29T03:25:43.611Z,22.00
2022-11-29T03:28:24.431Z,28.85
2022-11-29T03:31:26.532Z,24.48
2022-11-29T03:34:02.213Z,29.63
2022-11-29T03:36:58.051Z,29.00
2022-11-29T03:39:44.963Z,25.75
2022-11-29T03:42:25.559Z,23.95
2022-11-29T03:45:12.869Z,19.85
2022-11-29T03:48:00.108Z,20.55
2022-11-29T03:50:43.683Z,19.55
2022-11-29T03:53:16.455Z,22.27
2022-11-29T03:55:56.489Z,18.75
2022-11-29T03:58:49.865Z,18.85
2022-11-29T04:01:24.712Z,26.05
2022-11-29T04:04:22.021Z,28.20
2022-11-29T04:06:55.131Z,23.52
2022-11-29T04:09:41.203Z,21.42
2022-11-29T04:12:50.441Z,18.20
2022-11-29T04:15:24.063Z,17.88
2022-11-29T04:18:14.433Z,19.85
2022-11-29T04:21:14.832Z,15.93
2022-11-29T04:24:02.957Z,16.70
2022-11-29T04:27:06.878Z,22.02
2022-11-29T04:30:03.797Z,19.25
2022-11-29T04:32:42.504Z,17.38
2022-11-29T04:35:32.328Z,12.35
2022-11-29T04:38:26.359Z,18.27
2022-11-29T04:41:16.072Z,18.98
2022-11-29T04:44:27.863Z,20.02
2022-11-29T04:47:03.676Z,16.73
2022-11-29T04:49:51.863Z,16.88
2022-11-29T04:52:24.306Z,18.63
2022-11-29T04:55:27.839Z,19.30
2022-11-29T04:58:32.154Z,13.43
2022-11-29T05:01:15.480Z,15.10
2022-11-29T05:04:22.983Z,15.95
2022-11-29T05:07:05.864Z,16.30
2022-11-29T05:12:29.894Z,10.68
2022-11-29T05:15:15.076Z,13.80
2022-11-29T05:18:03.410Z,14.27
2022-11-29T05:20:55.199Z,17.23
2022-11-29T05:23:50.200Z,14.05
2022-11-29T05:26:32.629Z,14.02
2022-11-29T05:29:10.103Z,12.48
2022-11-29T05:31:39.320Z,16.45
2022-11-29T05:34:30.252Z,20.42
2022-11-29T05:37:21.883Z,16.58
2022-11-29T05:40:03.687Z,17.25
2022-11-29T05:43:04.066Z,20.55
2022-11-29T05:45:47.795Z,20.33
2022-11-29T05:48:52.047Z,21.95
2022-11-29T05:51:37.019Z,20.45
2022-11-29T05:54:25.559Z,18.70
2022-11-29T05:57:34.110Z,18.65
2022-11-29T06:00:04.228Z,16.83
2022-11-29T06:03:03.985Z,19.83
2022-11-29T06:05:36.549Z,22.05
2022-11-29T06:08:43.346Z,23.92
2022-11-29T06:11:42.392Z,27.77
2022-11-29T06:14:22.839Z,19.55
2022-11-29T06:17:10.673Z,26.88
2022-11-29T06:19:56.302Z,27.27
2022-11-29T06:22:35.765Z,27.02
2022-11-29T06:25:24.174Z,38.03
2022-11-29T06:28:04.446Z,39.22
2022-11-29T06:30:49.208Z,32.33
2022-11-29T06:33:28.991Z,37.30
2022-11-29T06:36:28.120Z,36.63
2022-11-29T06:38:55.654Z,31.35
2022-11-29T06:41:27.015Z,32.03
2022-11-29T06:43:54.688Z,34.63
2022-11-29T06:46:24.390Z,32.63
2022-11-29T06:49:04.141Z,37.85
2022-11-29T06:51:57.334Z,33.92
2022-11-29T06:54:58.651Z,33.25
2022-11-29T06:57:46.818Z,19.85
2022-11-29T07:00:23.663Z,15.80
2022-11-29T07:03:12.501Z,17.70
2022-11-29T07:05:41.014Z,13.73
2022-11-29T07:08:22.693Z,14.98
2022-11-29T07:10:56.640Z,14.38
2022-11-29T07:13:24.195Z,18.13
2022-11-29T07:16:11.408Z,14.57
2022-11-29T07:19:04.675Z,17.52
2022-11-29T07:22:07.656Z,14.95
2022-11-29T07:25:19.656Z,16.13
2022-11-29T07:28:03.365Z,12.30
2022-11-29T07:30:50.670Z,17.75
2022-11-29T07:33:42.079Z,14.05
2022-11-29T07:36:12.069Z,18.90
2022-11-29T07:39:18.019Z,21.67
2022-11-29T07:42:03.947Z,31.42
2022-11-29T07:44:46.950Z,30.13
2022-11-29T07:47:14.381Z,29.63
2022-11-29T07:49:41.633Z,29.20
2022-11-29T07:52:14.921Z,23.88
2022-11-29T07:54:42.711Z,21.58
2022-11-29T07:57:09.977Z,21.13
2022-11-29T07:59:39.679Z,19.67
2022-11-29T08:02:11.686Z,18.95
2022-11-29T08:04:44.700Z,19.23
2022-11-29T08:07:12.578Z,16.08
2022-11-29T08:09:39.818Z,19.38
2022-11-29T08:12:07.168Z,17.45
2022-11-29T08:14:35.606Z,15.55
2022-11-29T08:17:02.614Z,14.40
2022-11-29T08:19:29.760Z,13.90
2022-11-29T08:21:56.863Z,11.77
2022-11-29T08:24:23.988Z,15.80
2022-11-29T08:26:54.161Z,13.90
2022-11-29T08:29:21.421Z,12.20
2022-11-29T08:31:56.202Z,19.05
2022-11-29T08:34:24.421Z,18.80
2022-11-29T08:36:54.775Z,15.93
2022-11-29T08:39:24.249Z,15.68
2022-11-29T08:41:53.564Z,14.40
2022-11-29T08:44:20.603Z,16.23
2022-11-29T08:47:06.082Z,15.90
2022-11-29T08:49:33.347Z,21.05
2022-11-29T08:52:32.640Z,18.30
2022-11-29T08:55:03.165Z,13.27
2022-11-29T08:57:39.859Z,13.77
2022-11-29T09:00:08.428Z,18.48
2022-11-29T09:02:36.702Z,19.67
2022-11-29T09:05:05.400Z,20.17
2022-11-29T09:07:33.325Z,13.88
2022-11-29T09:10:05.187Z,16.52
2022-11-29T09:12:35.922Z,15.35
2022-11-29T09:15:05.545Z,19.83
2022-11-29T09:17:32.914Z,18.60
2022-11-29T09:20:00.386Z,22.15
2022-11-29T09:22:27.519Z,19.85
2022-11-29T09:24:54.911Z,17.90
2022-11-29T09:27:24.896Z,21.30
2022-11-29T09:29:51.995Z,18.88
2022-11-29T09:32:19.061Z,18.48
2022-11-29T09:34:46.474Z,21.65
2022-11-29T09:37:16.398Z,21.13
2022-11-29T09:39:43.826Z,20.38
2022-11-29T09:42:19.562Z,17.65
2022-11-29T09:45:09.813Z,16.27
2022-11-29T09:47:51.863Z,14.48
2022-11-29T09:50:43.221Z,11.02
2022-11-29T09:53:22.169Z,13.85
2022-11-29T09:56:01.234Z,22.25
2022-11-29T09:58:50.551Z,17.63
2022-11-29T10:01:23.212Z,15.88
2022-11-29T10:06:32.760Z,16.90
2022-11-29T10:09:04.798Z,17.02
2022-11-29T10:11:41.536Z,14.02
2022-11-29T10:14:20.606Z,12.45
2022-11-29T10:16:59.655Z,12.57
2022-11-29T10:19:43.308Z,10.68
2022-11-29T10:22:15.918Z,11.43
2022-11-29T10:27:19.610Z,11.40
2022-11-29T10:29:50.442Z,11.15
2022-11-29T10:32:21.418Z,10.40
2022-11-29T10:34:50.262Z,11.25
2022-11-29T10:37:23.357Z,13.55
2022-11-29T10:39:54.575Z,9.55
2022-11-29T10:42:43.182Z,9.35
2022-11-29T10:45:24.685Z,7.78
2022-11-29T10:47:54.153Z,11.30
2022-11-29T10:50:27.575Z,8.82
2022-11-29T10:53:00.234Z,10.95
2022-11-29T10:55:31.542Z,9.25
2022-11-29T10:58:15.417Z,9.65
2022-11-29T11:01:00.215Z,12.95
2022-11-29T11:03:52.962Z,12.90
2022-11-29T11:06:25.604Z,17.63
2022-11-29T11:09:11.352Z,15.00
2022-11-29T11:11:41.103Z,20.17
2022-11-29T11:14:37.691Z,18.75
2022-11-29T11:17:27.752Z,20.38
2022-11-29T11:19:56.245Z,11.75
2022-11-29T11:22:25.395Z,10.75
2022-11-29T11:25:03.595Z,13.32
2022-11-29T11:27:37.345Z,11.80
2022-11-29T11:30:18.416Z,15.93
2022-11-29T11:33:16.443Z,11.40
2022-11-29T11:36:19.243Z,9.48
2022-11-29T11:39:27.904Z,7.18
2022-11-29T11:42:17.787Z,8.07
2022-11-29T11:44:52.971Z,8.25
2022-11-29T11:47:29.168Z,8.60
2022-11-29T11:50:05.017Z,11.40
2022-11-29T11:52:56.565Z,7.72
2022-11-29T11:55:36.765Z,8.60
2022-11-29T11:58:17.369Z,10.68
2022-11-29T12:01:05.016Z,11.13
2022-11-29T12:03:56.420Z,12.80
2022-11-29T12:10:08.914Z,15.55
2022-11-29T12:12:46.872Z,15.75
2022-11-29T12:15:34.123Z,13.15
2022-11-29T12:18:21.298Z,13.07
2022-11-29T12:20:56.018Z,12.27
2022-11-29T12:23:28.875Z,15.57
2022-11-29T12:26:06.706Z,13.23
2022-11-29T12:28:38.331Z,12.27
2022-11-29T12:31:11.936Z,11.50
2022-11-29T12:33:59.576Z,9.07
2022-11-29T12:36:35.525Z,7.43
2022-11-29T12:39:23.967Z,9.60
2022-11-29T12:41:54.316Z,8.05
2022-11-29T12:44:39.480Z,17.63
2022-11-29T12:47:36.863Z,16.23
2022-11-29T12:50:33.764Z,15.55
2022-11-29T12:53:09.052Z,15.13
2022-11-29T12:56:04.611Z,11.88
2022-11-29T12:59:07.640Z,14.30
2022-11-29T13:01:47.256Z,10.93
2022-11-29T13:04:45.376Z,11.30
2022-11-29T13:07:39.511Z,10.35
2022-11-29T13:10:44.223Z,10.68
2022-11-29T13:13:32.449Z,12.50
2022-11-29T13:16:14.687Z,14.52
2022-11-29T13:19:08.812Z,12.77
2022-11-29T13:21:46.557Z,9.88
2022-11-29T13:24:27.684Z,9.82
2022-11-29T13:26:56.554Z,8.70
2022-11-29T13:29:24.500Z,8.57
2022-11-29T13:31:56.686Z,12.70
2022-11-29T13:34:36.638Z,14.52
2022-11-29T13:37:35.716Z,12.52
2022-11-29T13:40:46.924Z,13.32
2022-11-29T13:46:13.888Z,9.02
2022-11-29T13:48:48.771Z,6.05
2022-11-29T13:51:40.790Z,8.80
2022-11-29T13:54:30.988Z,9.93
2022-11-29T13:57:05.565Z,7.22
2022-11-29T13:59:36.243Z,6.30
2022-11-29T14:02:04.760Z,10.15
2022-11-29T14:04:38.705Z,9.20
2022-11-29T14:07:19.850Z,7.75
2022-11-29T14:10:00.367Z,7.63
2022-11-29T14:12:27.590Z,6.82
2022-11-29T14:15:03.153Z,8.18
2022-11-29T14:17:53.687Z,12.30
2022-11-29T14:20:23.689Z,10.68
2022-11-29T14:24:05.424Z,10.02
2022-11-29T14:29:49.385Z,7.97
2022-11-29T14:33:00.716Z,7.95
2022-11-29T14:35:55.827Z,15.55
2022-11-29T14:38:42.287Z,10.05
2022-11-29T14:41:47.834Z,8.25
2022-11-29T14:44:26.179Z,8.50
2022-11-29T14:47:37.387Z,11.52
2022-11-29T14:50:10.529Z,15.27
2022-11-29T14:52:49.962Z,13.60
2022-11-29T14:55:19.818Z,16.90
2022-11-29T14:58:04.180Z,12.23
2022-11-29T15:00:44.519Z,10.30
2022-11-29T15:03:43.020Z,11.13
2022-11-29T15:06:26.558Z,13.07
2022-11-29T15:09:04.871Z,10.27
2022-11-29T15:11:48.138Z,11.32
2022-11-29T15:14:59.208Z,19.08
2022-11-29T15:18:01.199Z,21.05
2022-11-29T15:21:13.945Z,18.67
2022-11-29T15:23:44.295Z,21.30
2022-11-29T15:26:19.866Z,19.65
2022-11-29T15:29:14.912Z,19.83
2022-11-29T15:31:48.680Z,21.92
2022-11-29T15:34:55.997Z,23.05
2022-11-29T15:37:44.738Z,26.25
2022-11-29T15:40:19.095Z,22.55
2022-11-29T15:42:58.140Z,22.00
2022-11-29T15:45:36.637Z,19.70
2022-11-29T15:48:19.456Z,21.23
2022-11-29T15:51:04.590Z,21.20
2022-11-29T15:53:49.959Z,16.33
2022-11-29T15:56:26.535Z,20.83
2022-11-29T15:59:05.609Z,23.88
2022-11-29T16:01:37.147Z,23.13
2022-11-29T16:04:04.751Z,20.27
2022-11-29T16:06:43.856Z,19.40
2022-11-29T16:09:20.247Z,17.20
2022-11-29T16:11:53.109Z,21.52
2022-11-29T16:14:25.838Z,24.50
2022-11-29T16:17:00.686Z,19.73
2022-11-29T16:19:39.335Z,26.73
2022-11-29T16:22:13.509Z,18.77
2022-11-29T16:25:09.390Z,25.80
2022-11-29T16:27:36.919Z,25.13
2022-11-29T16:30:05.446Z,26.52
2022-11-29T16:32:43.195Z,27.83
2022-11-29T16:36:03.764Z,21.38
2022-11-29T16:38:35.898Z,26.73
2022-11-29T16:41:19.826Z,26.02
2022-11-29T16:49:18.052Z,23.52
2022-11-29T16:51:59.242Z,22.35
2022-11-29T16:54:50.604Z,21.15
2022-11-29T16:57:24.515Z,19.42
2022-11-29T17:00:09.837Z,23.35
2022-11-29T17:02:37.121Z,23.33
2022-11-29T17:05:09.870Z,25.95
2022-11-29T17:07:40.414Z,30.38
2022-11-29T17:10:15.458Z,32.05
2022-11-29T17:12:48.216Z,29.27
2022-11-29T17:15:17.374Z,31.35
2022-11-29T17:17:48.655Z,32.90
2022-11-29T17:20:18.820Z,33.58
2022-11-29T17:22:48.296Z,37.63
2022-11-29T17:25:15.639Z,33.05
2022-11-29T17:27:42.992Z,33.83
2022-11-29T17:30:11.432Z,31.42
2022-11-29T17:32:38.657Z,27.58
2022-11-29T17:35:06.093Z,28.20
2022-11-29T17:37:33.122Z,28.08
2022-11-29T17:40:09.739Z,23.38
2022-11-29T17:42:38.193Z,21.73
2022-11-29T17:45:05.774Z,22.40
2022-11-29T17:47:33.540Z,20.17
2022-11-29T17:50:03.324Z,14.93
2022-11-29T17:52:30.458Z,18.20
2022-11-29T17:55:23.799Z,14.23
2022-11-29T17:58:14.876Z,14.68
2022-11-29T18:00:42.095Z,15.93
2022-11-29T18:03:22.081Z,17.95
2022-11-29T18:06:13.699Z,15.23
2022-11-29T18:09:11.435Z,11.13
2022-11-29T18:11:55.454Z,18.40
2022-11-29T18:14:54.178Z,18.45
2022-11-29T18:21:33.055Z,15.45
2022-11-29T18:48:52.020Z,23.40
2022-11-29T18:52:16.742Z,21.40
2022-11-29T18:59:35.275Z,18.10
2022-11-29T19:03:06.417Z,16.65
2022-11-29T19:06:00.425Z,13.65
2022-11-29T19:08:35.498Z,20.33
2022-11-29T19:11:15.769Z,19.15
2022-11-29T19:14:04.706Z,16.63
2022-11-29T19:19:32.699Z,19.02
2022-11-29T19:21:21.527Z,18.95
2022-11-29T19:24:18.795Z,19.17
2022-11-29T19:27:00.018Z,16.63
2022-11-29T19:29:28.544Z,16.30
2022-11-29T19:31:55.696Z,14.50
2022-11-29T19:34:22.814Z,15.27
2022-11-29T19:36:49.698Z,16.15
2022-11-29T19:39:17.745Z,17.60
2022-11-29T19:41:47.398Z,16.38
2022-11-29T19:44:16.406Z,17.30
2022-11-29T19:47:11.952Z,17.20
2022-11-29T19:49:46.137Z,20.63
2022-11-29T20:16:51.012Z,17.92
2022-11-29T20:19:11.143Z,15.88
2022-11-29T20:34:54.387Z,13.38
2022-11-29T20:37:53.172Z,13.43
2022-11-29T20:40:49.991Z,14.25
2022-11-29T20:43:49.346Z,13.30
2022-11-29T20:54:28.886Z,8.80
2022-11-29T21:01:16.991Z,8.63
2022-11-29T21:07:41.024Z,8.55
2022-11-29T21:10:08.981Z,11.52
2022-11-29T21:12:36.553Z,16.95
2022-11-29T21:15:04.365Z,16.13
2022-11-29T21:17:33.657Z,16.35
2022-11-29T21:20:01.884Z,13.68
2022-11-29T21:22:43.940Z,14.10
2022-11-29T21:25:23.071Z,13.88
2022-11-29T21:27:53.026Z,12.65
2022-11-29T21:30:22.598Z,9.90
2022-11-29T21:32:57.970Z,9.55
2022-11-29T21:35:25.297Z,9.13
2022-11-29T21:37:56.013Z,8.07
2022-11-29T21:40:27.413Z,8.13
2022-11-29T21:42:54.476Z,8.60
2022-11-29T21:45:21.808Z,8.90
2022-11-29T21:48:00.489Z,9.77
2022-11-29T21:50:28.831Z,12.93
2022-11-29T21:53:01.070Z,8.98
2022-11-29T21:56:06.766Z,9.80
2022-11-29T21:59:09.934Z,9.80
2022-11-29T22:01:39.716Z,13.57
2022-11-29T22:04:07.078Z,12.50
2022-11-29T22:06:34.249Z,13.57
2022-11-29T22:09:01.352Z,9.48
2022-11-29T22:11:31.513Z,9.80
2022-11-29T22:14:16.118Z,8.23
2022-11-29T22:16:50.781Z,10.35
2022-11-29T22:19:27.294Z,8.55
2022-11-29T22:21:57.327Z,8.10
2022-11-29T22:24:27.300Z,8.27
2022-11-29T22:26:54.901Z,9.55
2022-11-29T22:29:23.076Z,9.45
2022-11-29T22:31:55.975Z,10.50
2022-11-29T22:34:25.380Z,10.93
2022-11-29T22:36:55.584Z,10.15
2022-11-29T22:39:22.985Z,9.15
2022-11-29T22:41:54.198Z,13.52
2022-11-29T22:44:23.707Z,10.13
2022-11-29T22:46:51.057Z,10.38
2022-11-29T22:49:21.021Z,11.35
2022-11-29T22:51:48.669Z,11.70
2022-11-29T22:54:16.632Z,11.45
2022-11-29T22:56:45.242Z,10.32
2022-11-29T22:59:12.952Z,10.85
2022-11-29T23:01:41.620Z,12.10
2022-11-29T23:04:12.373Z,11.30
2022-11-29T23:06:43.377Z,10.55
2022-11-29T23:09:21.687Z,14.18
2022-11-29T23:11:54.035Z,12.25
2022-11-29T23:14:24.622Z,12.15
2022-11-29T23:16:52.084Z,12.10
2022-11-29T23:19:24.993Z,10.73
2022-11-29T23:22:06.213Z,10.55
2022-11-29T23:24:43.445Z,10.07
2022-11-29T23:27:11.999Z,11.23
2022-11-29T23:29:46.533Z,10.85
2022-11-29T23:32:24.686Z,10.23
2022-11-29T23:34:54.562Z,9.35
2022-11-29T23:37:26.967Z,9.45
2022-11-29T23:40:08.580Z,8.63
2022-11-29T23:42:45.079Z,9.48
2022-11-29T23:45:14.427Z,8.02
2022-11-29T23:47:43.931Z,8.93
2022-11-29T23:50:11.874Z,8.55
2022-11-29T23:52:38.952Z,10.20
2022-11-29T23:55:06.559Z,7.75
2022-11-29T23:57:33.527Z,7.78
